createdAt,value
2018-11-21T00:00:27.101Z,27.80
2018-11-21T00:01:27.060Z,27.00
2018-11-21T00:02:27.062Z,29.40
2018-11-21T00:03:27.047Z,28.90
2018-11-21T00:04:27.048Z,28.60
2018-11-21T00:05:27.068Z,27.50
2018-11-21T00:06:27.033Z,28.00
2018-11-21T00:07:27.028Z,25.60
2018-11-21T00:08:27.020Z,27.20
2018-11-21T00:09:27.010Z,26.70
2018-11-21T00:10:27.036Z,25.30
2018-11-21T00:11:26.992Z,25.60
2018-11-21T00:12:26.991Z,24.80
2018-11-21T00:13:26.983Z,25.20
2018-11-21T00:14:26.975Z,25.50
2018-11-21T00:15:26.996Z,25.60
2018-11-21T00:16:26.962Z,26.50
2018-11-21T00:17:26.955Z,25.50
2018-11-21T00:18:26.951Z,22.20
2018-11-21T00:19:26.941Z,24.90
2018-11-21T00:20:26.966Z,22.50
2018-11-21T00:21:26.924Z,25.30
2018-11-21T00:22:26.924Z,26.40
2018-11-21T00:23:26.914Z,26.50
2018-11-21T00:24:26.905Z,24.00
2018-11-21T00:25:26.927Z,25.80
2018-11-21T00:26:26.894Z,25.00
2018-11-21T00:27:26.887Z,23.80
2018-11-21T00:28:26.878Z,25.70
2018-11-21T00:29:26.874Z,24.60
2018-11-21T00:30:26.894Z,25.10
2018-11-21T00:31:26.858Z,18.20
2018-11-21T00:32:26.852Z,25.40
2018-11-21T00:33:26.851Z,25.80
2018-11-21T00:34:26.834Z,25.80
2018-11-21T00:35:26.902Z,25.10
2018-11-21T00:36:26.822Z,25.10
2018-11-21T00:37:26.818Z,24.80
2018-11-21T00:38:26.809Z,25.50
2018-11-21T00:39:26.800Z,24.20
2018-11-21T00:40:26.822Z,24.30
2018-11-21T00:41:26.780Z,19.30
2018-11-21T00:42:26.781Z,25.30
2018-11-21T00:43:26.777Z,24.10
2018-11-21T00:44:26.768Z,25.80
2018-11-21T00:45:26.786Z,26.60
2018-11-21T00:46:26.752Z,25.70
2018-11-21T00:47:26.744Z,26.40
2018-11-21T00:48:26.740Z,26.00
2018-11-21T00:49:26.733Z,26.70
2018-11-21T00:50:26.755Z,25.00
2018-11-21T00:51:26.720Z,25.30
2018-11-21T00:52:26.715Z,25.00
2018-11-21T00:53:26.707Z,26.00
2018-11-21T00:54:26.702Z,26.00
2018-11-21T00:55:26.722Z,25.90
2018-11-21T00:56:26.685Z,25.00
2018-11-21T00:57:26.671Z,27.10
2018-11-21T00:58:26.678Z,25.00
2018-11-21T00:59:26.663Z,26.00
2018-11-21T01:00:26.688Z,25.80
2018-11-21T01:01:26.651Z,25.40
2018-11-21T01:02:26.642Z,26.10
2018-11-21T01:03:26.633Z,23.60
2018-11-21T01:04:26.654Z,25.60
2018-11-21T01:05:26.618Z,26.30
2018-11-21T01:06:26.643Z,26.40
2018-11-21T01:07:26.616Z,27.30
2018-11-21T01:08:26.603Z,25.50
2018-11-21T01:09:26.594Z,27.50
2018-11-21T01:10:26.582Z,26.20
2018-11-21T01:11:26.607Z,25.70
2018-11-21T01:12:26.574Z,25.70
2018-11-21T01:13:26.566Z,26.70
2018-11-21T01:14:26.562Z,26.40
2018-11-21T01:15:26.553Z,26.50
2018-11-21T01:16:26.578Z,26.00
2018-11-21T01:17:26.539Z,25.50
2018-11-21T01:18:26.534Z,24.00
2018-11-21T01:19:26.521Z,25.50
2018-11-21T01:20:26.517Z,24.20
2018-11-21T01:21:26.537Z,25.50
2018-11-21T01:22:26.505Z,24.20
2018-11-21T01:23:26.499Z,24.90
2018-11-21T01:24:26.490Z,25.20
2018-11-21T01:25:26.474Z,24.90
2018-11-21T01:26:26.512Z,23.00
2018-11-21T01:27:27.315Z,25.90
2018-11-21T01:28:26.465Z,25.20
2018-11-21T01:29:26.460Z,25.00
2018-11-21T01:30:26.513Z,25.50
2018-11-21T01:31:26.474Z,17.40
2018-11-21T01:32:26.435Z,24.30
2018-11-21T01:33:26.428Z,24.80
2018-11-21T01:34:26.417Z,25.50
2018-11-21T01:35:26.451Z,24.40
2018-11-21T01:36:26.405Z,25.50
2018-11-21T01:37:26.425Z,25.10
2018-11-21T01:38:26.401Z,26.40
2018-11-21T01:39:26.388Z,25.50
2018-11-21T01:40:26.381Z,23.60
2018-11-21T01:41:26.404Z,25.10
2018-11-21T01:42:26.372Z,24.80
2018-11-21T01:43:26.360Z,25.70
2018-11-21T01:44:26.356Z,25.50
2018-11-21T01:45:26.377Z,24.80
2018-11-21T01:46:26.339Z,25.30
2018-11-21T01:47:26.364Z,25.30
2018-11-21T01:48:26.326Z,24.50
2018-11-21T01:49:26.320Z,25.80
2018-11-21T01:50:26.312Z,24.50
2018-11-21T01:51:26.305Z,25.90
2018-11-21T01:52:26.327Z,24.70
2018-11-21T01:53:26.291Z,24.30
2018-11-21T01:54:26.287Z,23.90
2018-11-21T01:55:26.272Z,24.60
2018-11-21T01:56:26.278Z,24.60
2018-11-21T01:57:26.287Z,24.90
2018-11-21T01:58:26.255Z,22.90
2018-11-21T01:59:26.252Z,25.70
2018-11-21T02:00:26.243Z,25.90
2018-11-21T02:01:26.231Z,24.10
2018-11-21T02:02:26.267Z,25.10
2018-11-21T02:03:26.223Z,25.20
2018-11-21T02:04:26.215Z,24.30
2018-11-21T02:05:26.230Z,25.20
2018-11-21T02:06:26.203Z,26.10
2018-11-21T02:07:26.188Z,25.60
2018-11-21T02:08:26.209Z,25.10
2018-11-21T02:09:26.180Z,25.50
2018-11-21T02:10:26.177Z,25.40
2018-11-21T02:11:26.165Z,24.20
2018-11-21T02:12:26.161Z,25.10
2018-11-21T02:13:26.180Z,25.00
2018-11-21T02:14:26.145Z,24.30
2018-11-21T02:15:26.139Z,27.70
2018-11-21T02:16:26.133Z,26.80
2018-11-21T02:17:26.125Z,24.50
2018-11-21T02:18:26.150Z,26.20
2018-11-21T02:19:26.113Z,26.20
2018-11-21T02:20:26.106Z,25.80
2018-11-21T02:21:26.101Z,25.10
2018-11-21T02:22:26.093Z,25.60
2018-11-21T02:23:26.118Z,25.60
2018-11-21T02:24:26.076Z,26.50
2018-11-21T02:25:26.072Z,25.60
2018-11-21T02:26:26.065Z,24.80
2018-11-21T02:27:26.060Z,25.50
2018-11-21T02:28:26.081Z,25.00
2018-11-21T02:29:26.050Z,25.30
2018-11-21T02:30:26.041Z,23.90
2018-11-21T02:31:26.029Z,25.30
2018-11-21T02:32:26.024Z,24.50
2018-11-21T02:33:26.047Z,25.40
2018-11-21T02:34:26.008Z,25.80
2018-11-21T02:35:25.999Z,26.50
2018-11-21T02:36:26.027Z,25.60
2018-11-21T02:37:25.988Z,26.60
2018-11-21T02:38:25.981Z,24.90
2018-11-21T02:39:26.003Z,26.10
2018-11-21T02:40:25.967Z,25.80
2018-11-21T02:41:25.994Z,25.40
2018-11-21T02:42:25.955Z,25.70
2018-11-21T02:43:25.945Z,25.20
2018-11-21T02:44:25.959Z,23.40
2018-11-21T02:45:25.935Z,24.30
2018-11-21T02:46:25.928Z,26.10
2018-11-21T02:47:25.920Z,26.20
2018-11-21T02:48:25.916Z,26.60
2018-11-21T02:49:25.945Z,26.60
2018-11-21T02:50:25.900Z,25.70
2018-11-21T02:51:25.897Z,26.50
2018-11-21T02:52:25.888Z,26.90
2018-11-21T02:53:25.879Z,27.10
2018-11-21T02:54:25.900Z,26.60
2018-11-21T02:55:25.871Z,27.20
2018-11-21T02:56:25.859Z,26.60
2018-11-21T02:57:25.851Z,26.00
2018-11-21T02:58:25.847Z,25.70
2018-11-21T03:00:57.455Z,26.30
2018-11-21T03:01:57.451Z,26.20
2018-11-21T03:02:57.425Z,26.90
2018-11-21T03:03:57.418Z,25.40
2018-11-21T03:04:57.445Z,25.70
2018-11-21T03:05:57.405Z,26.10
2018-11-21T03:06:57.404Z,25.20
2018-11-21T03:07:57.392Z,26.40
2018-11-21T03:08:57.386Z,23.90
2018-11-21T03:09:57.407Z,25.70
2018-11-21T03:10:57.370Z,25.60
2018-11-21T03:11:57.367Z,25.90
2018-11-21T03:12:57.357Z,19.90
2018-11-21T03:13:57.356Z,26.20
2018-11-21T03:14:57.370Z,26.00
2018-11-21T03:15:57.342Z,26.20
2018-11-21T03:16:57.341Z,25.90
2018-11-21T03:17:57.324Z,27.40
2018-11-21T03:18:57.310Z,25.70
2018-11-21T03:19:57.338Z,26.40
2018-11-21T03:20:57.393Z,27.20
2018-11-21T03:21:57.296Z,27.90
2018-11-21T03:22:57.293Z,26.90
2018-11-21T03:23:57.280Z,25.00
2018-11-21T03:24:57.298Z,25.60
2018-11-21T03:25:57.265Z,23.40
2018-11-21T03:26:57.259Z,24.10
2018-11-21T03:27:57.256Z,26.30
2018-11-21T03:28:57.247Z,22.90
2018-11-21T03:29:57.273Z,28.20
2018-11-21T03:30:57.236Z,25.50
2018-11-21T03:31:57.227Z,26.80
2018-11-21T03:32:57.218Z,26.30
2018-11-21T03:33:57.780Z,27.50
2018-11-21T03:34:57.233Z,29.00
2018-11-21T03:35:57.196Z,27.10
2018-11-21T03:36:57.194Z,30.00
2018-11-21T03:37:57.180Z,29.10
2018-11-21T03:38:57.180Z,20.80
2018-11-21T03:39:57.196Z,26.30
2018-11-21T03:40:57.160Z,25.90
2018-11-21T03:41:57.156Z,27.50
2018-11-21T03:42:57.178Z,27.40
2018-11-21T03:43:57.137Z,27.90
2018-11-21T03:44:57.132Z,27.80
2018-11-21T03:45:57.149Z,25.40
2018-11-21T03:46:57.121Z,28.20
2018-11-21T03:47:57.111Z,27.40
2018-11-21T03:48:57.107Z,28.00
2018-11-21T03:49:57.127Z,27.60
2018-11-21T03:50:57.091Z,26.60
2018-11-21T03:51:57.085Z,26.40
2018-11-21T03:52:57.077Z,26.70
2018-11-21T03:53:57.100Z,28.60
2018-11-21T03:54:57.063Z,27.90
2018-11-21T03:55:57.082Z,28.40
2018-11-21T03:56:57.050Z,28.00
2018-11-21T03:57:57.043Z,28.50
2018-11-21T03:58:57.047Z,28.00
2018-11-21T03:59:57.054Z,27.90
2018-11-21T04:00:57.022Z,28.70
2018-11-21T04:01:57.018Z,27.70
2018-11-21T04:02:57.006Z,28.80
2018-11-21T04:03:56.998Z,28.50
2018-11-21T04:04:57.024Z,27.50
2018-11-21T04:05:56.989Z,28.10
2018-11-21T04:06:56.976Z,28.40
2018-11-21T04:07:56.972Z,28.00
2018-11-21T04:08:56.961Z,28.80
2018-11-21T04:09:56.987Z,28.10
2018-11-21T04:10:56.953Z,28.30
2018-11-21T04:11:56.949Z,27.80
2018-11-21T04:12:56.939Z,27.70
2018-11-21T04:13:56.930Z,28.00
2018-11-21T04:14:56.949Z,28.50
2018-11-21T04:15:56.917Z,27.80
2018-11-21T04:16:56.913Z,29.00
2018-11-21T04:17:56.900Z,28.50
2018-11-21T04:18:56.893Z,25.90
2018-11-21T04:19:56.918Z,27.80
2018-11-21T04:20:56.881Z,27.80
2018-11-21T04:21:56.873Z,28.10
2018-11-21T04:22:56.869Z,26.40
2018-11-21T04:23:56.861Z,28.60
2018-11-21T04:24:56.881Z,27.90
2018-11-21T04:25:56.842Z,28.30
2018-11-21T04:26:56.847Z,27.90
2018-11-21T04:27:56.831Z,27.70
2018-11-21T04:28:56.824Z,28.30
2018-11-21T04:29:56.848Z,28.10
2018-11-21T04:30:56.816Z,27.70
2018-11-21T04:31:56.800Z,27.80
2018-11-21T04:32:56.802Z,28.50
2018-11-21T04:33:56.795Z,29.10
2018-11-21T04:34:56.811Z,28.90
2018-11-21T04:35:56.778Z,28.10
2018-11-21T04:36:56.771Z,28.20
2018-11-21T04:37:56.762Z,27.90
2018-11-21T04:38:56.754Z,27.60
2018-11-21T04:39:56.789Z,27.60
2018-11-21T04:40:56.744Z,27.90
2018-11-21T04:41:56.735Z,28.60
2018-11-21T04:42:56.728Z,28.00
2018-11-21T04:43:56.719Z,26.70
2018-11-21T04:44:56.750Z,26.10
2018-11-21T04:45:56.706Z,27.30
2018-11-21T04:46:56.699Z,28.20
2018-11-21T04:47:56.693Z,27.80
2018-11-21T04:48:56.687Z,26.20
2018-11-21T04:49:56.707Z,28.70
2018-11-21T04:50:56.677Z,28.30
2018-11-21T04:51:56.667Z,24.00
2018-11-21T04:52:56.650Z,25.40
2018-11-21T04:53:56.650Z,27.30
2018-11-21T04:54:56.678Z,26.20
2018-11-21T04:55:56.643Z,27.50
2018-11-21T04:56:56.631Z,27.50
2018-11-21T04:57:56.624Z,22.60
2018-11-21T04:58:56.619Z,25.70
2018-11-21T04:59:56.642Z,26.90
2018-11-21T05:00:56.598Z,28.40
2018-11-21T05:01:56.593Z,29.20
2018-11-21T05:02:56.588Z,28.10
2018-11-21T05:03:56.589Z,28.90
2018-11-21T05:04:56.597Z,27.20
2018-11-21T05:05:56.566Z,28.10
2018-11-21T05:06:56.560Z,28.90
2018-11-21T05:07:56.550Z,29.10
2018-11-21T05:08:56.546Z,29.30
2018-11-21T05:09:56.566Z,30.00
2018-11-21T05:10:56.534Z,26.70
2018-11-21T05:11:56.531Z,27.80
2018-11-21T05:12:56.533Z,27.50
2018-11-21T05:13:56.516Z,27.60
2018-11-21T05:14:56.532Z,27.50
2018-11-21T05:15:56.527Z,26.90
2018-11-21T05:16:56.503Z,27.40
2018-11-21T05:17:56.484Z,26.50
2018-11-21T05:18:56.477Z,27.20
2018-11-21T05:19:56.472Z,27.50
2018-11-21T05:20:56.547Z,27.60
2018-11-21T05:21:56.455Z,27.20
2018-11-21T05:22:56.448Z,27.70
2018-11-21T05:23:56.440Z,27.40
2018-11-21T05:24:56.436Z,27.60
2018-11-21T05:25:56.455Z,25.20
2018-11-21T05:26:56.419Z,27.40
2018-11-21T05:27:56.412Z,24.20
2018-11-21T05:28:56.405Z,25.00
2018-11-21T05:29:56.427Z,25.50
2018-11-21T05:30:56.392Z,27.40
2018-11-21T05:31:56.412Z,27.50
2018-11-21T05:32:56.379Z,27.90
2018-11-21T05:33:56.372Z,26.70
2018-11-21T05:34:56.363Z,28.30
2018-11-21T05:35:56.384Z,27.90
2018-11-21T05:36:56.350Z,28.60
2018-11-21T05:37:56.343Z,27.30
2018-11-21T05:38:56.336Z,23.50
2018-11-21T05:39:56.359Z,26.20
2018-11-21T05:40:56.323Z,26.90
2018-11-21T05:41:56.343Z,27.40
2018-11-21T05:42:56.306Z,29.60
2018-11-21T05:43:56.318Z,28.70
2018-11-21T05:44:56.291Z,26.10
2018-11-21T05:45:56.287Z,26.30
2018-11-21T05:46:56.303Z,28.70
2018-11-21T05:47:56.274Z,28.20
2018-11-21T05:48:56.266Z,28.20
2018-11-21T05:49:56.258Z,27.90
2018-11-21T05:50:56.248Z,19.20
2018-11-21T05:51:56.274Z,27.30
2018-11-21T05:52:56.236Z,26.50
2018-11-21T05:53:56.227Z,29.90
2018-11-21T05:54:56.221Z,26.20
2018-11-21T05:55:56.221Z,28.00
2018-11-21T05:56:56.242Z,27.50
2018-11-21T05:57:56.201Z,28.30
2018-11-21T05:58:56.194Z,30.10
2018-11-21T05:59:56.191Z,25.80
2018-11-21T06:00:56.273Z,27.10
2018-11-21T06:01:56.201Z,28.50
2018-11-21T06:02:56.167Z,28.80
2018-11-21T06:03:57.073Z,26.90
2018-11-21T06:04:56.152Z,27.20
2018-11-21T06:05:56.146Z,26.10
2018-11-21T06:06:56.164Z,28.60
2018-11-21T06:07:56.135Z,28.10
2018-11-21T06:08:56.125Z,28.00
2018-11-21T06:09:56.113Z,28.50
2018-11-21T06:10:56.114Z,27.60
2018-11-21T06:11:56.136Z,25.50
2018-11-21T06:12:56.096Z,28.20
2018-11-21T06:13:56.089Z,27.70
2018-11-21T06:14:56.080Z,24.30
2018-11-21T06:15:56.080Z,27.20
2018-11-21T06:16:56.104Z,27.80
2018-11-21T06:17:56.061Z,27.90
2018-11-21T06:18:56.052Z,27.60
2018-11-21T06:19:56.051Z,26.40
2018-11-21T06:20:56.039Z,27.20
2018-11-21T06:21:56.052Z,28.10
2018-11-21T06:22:56.024Z,29.30
2018-11-21T06:23:56.007Z,28.50
2018-11-21T06:24:56.012Z,29.10
2018-11-21T06:25:56.008Z,27.70
2018-11-21T06:26:56.024Z,27.90
2018-11-21T06:27:55.995Z,26.80
2018-11-21T06:28:55.983Z,28.10
2018-11-21T06:29:56.576Z,28.10
2018-11-21T06:30:55.973Z,28.00
2018-11-21T06:31:56.003Z,27.30
2018-11-21T06:32:55.951Z,27.30
2018-11-21T06:33:55.948Z,27.40
2018-11-21T06:34:55.941Z,26.30
2018-11-21T06:35:55.935Z,25.80
2018-11-21T06:36:55.952Z,27.90
2018-11-21T06:37:55.919Z,26.30
2018-11-21T06:38:55.911Z,27.80
2018-11-21T06:39:55.906Z,26.50
2018-11-21T06:40:55.898Z,26.00
2018-11-21T06:41:55.919Z,27.00
2018-11-21T06:42:55.890Z,26.30
2018-11-21T06:43:55.911Z,25.10
2018-11-21T06:44:55.870Z,26.50
2018-11-21T06:45:55.890Z,26.90
2018-11-21T06:46:55.854Z,27.40
2018-11-21T06:47:55.848Z,31.30
2018-11-21T06:48:55.846Z,26.70
2018-11-21T06:49:55.902Z,31.50
2018-11-21T06:50:55.892Z,28.20
2018-11-21T06:51:55.849Z,28.30
2018-11-21T06:52:55.815Z,28.40
2018-11-21T06:53:55.803Z,29.00
2018-11-21T06:54:55.798Z,29.50
2018-11-21T06:55:55.798Z,29.40
2018-11-21T06:56:55.813Z,29.20
2018-11-21T06:57:55.780Z,30.20
2018-11-21T06:58:55.769Z,30.70
2018-11-21T06:59:55.764Z,28.40
2018-11-21T07:00:55.790Z,29.30
2018-11-21T07:01:55.749Z,28.40
2018-11-21T07:02:55.740Z,28.20
2018-11-21T07:03:55.737Z,27.70
2018-11-21T07:04:55.729Z,28.40
2018-11-21T07:05:55.749Z,27.60
2018-11-21T07:06:55.740Z,30.60
2018-11-21T07:07:55.714Z,28.80
2018-11-21T07:08:55.696Z,32.50
2018-11-21T07:09:55.736Z,34.70
2018-11-21T07:10:55.680Z,32.40
2018-11-21T07:11:55.715Z,24.30
2018-11-21T07:12:55.669Z,34.80
2018-11-21T07:13:55.664Z,29.80
2018-11-21T07:14:55.660Z,34.50
2018-11-21T07:15:55.657Z,33.10
2018-11-21T07:16:55.672Z,33.20
2018-11-21T07:17:55.639Z,29.60
2018-11-21T07:18:55.627Z,33.30
2018-11-21T07:19:55.625Z,31.20
2018-11-21T07:20:55.649Z,30.40
2018-11-21T07:21:55.639Z,30.10
2018-11-21T07:22:55.603Z,29.50
2018-11-21T07:23:55.596Z,30.00
2018-11-21T07:24:55.588Z,29.70
2018-11-21T07:25:55.578Z,29.60
2018-11-21T07:26:55.605Z,29.40
2018-11-21T07:27:55.577Z,31.90
2018-11-21T07:28:55.563Z,26.40
2018-11-21T07:29:55.551Z,29.80
2018-11-21T07:30:55.545Z,29.40
2018-11-21T07:31:55.566Z,26.40
2018-11-21T07:32:55.537Z,30.70
2018-11-21T07:33:55.528Z,30.60
2018-11-21T07:34:55.525Z,31.20
2018-11-21T07:35:55.514Z,26.00
2018-11-21T07:36:55.535Z,28.30
2018-11-21T07:37:55.498Z,29.70
2018-11-21T07:38:55.490Z,31.80
2018-11-21T07:39:55.488Z,30.10
2018-11-21T07:40:55.510Z,29.80
2018-11-21T07:41:55.467Z,27.70
2018-11-21T07:42:55.466Z,20.30
2018-11-21T07:43:55.455Z,29.20
2018-11-21T07:44:55.450Z,30.10
2018-11-21T07:45:55.474Z,29.80
2018-11-21T07:46:55.438Z,31.00
2018-11-21T07:47:55.431Z,30.80
2018-11-21T07:48:55.426Z,25.50
2018-11-21T07:49:55.510Z,28.90
2018-11-21T07:50:55.446Z,31.40
2018-11-21T07:51:55.434Z,25.70
2018-11-21T07:52:55.398Z,30.50
2018-11-21T07:53:55.388Z,30.40
2018-11-21T07:54:55.385Z,30.80
2018-11-21T07:55:55.376Z,29.50
2018-11-21T07:56:55.400Z,29.80
2018-11-21T07:57:55.361Z,29.20
2018-11-21T07:58:55.363Z,26.90
2018-11-21T07:59:55.349Z,30.20
2018-11-21T08:00:55.370Z,30.30
2018-11-21T08:01:55.364Z,28.80
2018-11-21T08:02:55.360Z,27.50
2018-11-21T08:03:55.324Z,29.20
2018-11-21T08:04:55.315Z,29.40
2018-11-21T08:05:55.309Z,29.10
2018-11-21T08:06:55.304Z,27.80
2018-11-21T08:07:55.333Z,29.90
2018-11-21T08:08:55.293Z,29.40
2018-11-21T08:09:55.284Z,28.80
2018-11-21T08:10:55.276Z,30.50
2018-11-21T08:11:55.274Z,30.90
2018-11-21T08:12:55.296Z,30.60
2018-11-21T08:13:55.262Z,29.40
2018-11-21T08:14:55.251Z,30.20
2018-11-21T08:15:55.239Z,31.20
2018-11-21T08:16:55.239Z,31.40
2018-11-21T08:17:55.258Z,30.20
2018-11-21T08:18:55.222Z,29.00
2018-11-21T08:19:55.218Z,31.10
2018-11-21T08:20:55.211Z,31.40
2018-11-21T08:21:55.207Z,29.60
2018-11-21T08:22:55.228Z,30.80
2018-11-21T08:23:55.641Z,31.10
2018-11-21T08:24:55.183Z,30.70
2018-11-21T08:25:55.178Z,30.10
2018-11-21T08:26:55.171Z,31.50
2018-11-21T08:27:55.194Z,32.50
2018-11-21T08:28:55.173Z,31.30
2018-11-21T08:29:55.174Z,31.60
2018-11-21T08:30:55.147Z,31.20
2018-11-21T08:31:55.142Z,30.20
2018-11-21T08:32:55.167Z,31.90
2018-11-21T08:33:55.133Z,31.60
2018-11-21T08:34:55.118Z,30.90
2018-11-21T08:35:55.114Z,31.00
2018-11-21T08:36:55.110Z,32.30
2018-11-21T08:37:55.145Z,31.60
2018-11-21T08:38:55.098Z,34.20
2018-11-21T08:39:55.091Z,32.40
2018-11-21T08:40:55.087Z,29.80
2018-11-21T08:41:55.081Z,32.10
2018-11-21T08:42:55.102Z,32.40
2018-11-21T08:44:55.063Z,31.40
2018-11-21T08:45:55.050Z,30.10
2018-11-21T08:46:55.041Z,31.10
2018-11-21T08:47:55.083Z,29.80
2018-11-21T08:48:55.034Z,29.30
2018-11-21T08:49:55.027Z,31.00
2018-11-21T08:50:55.021Z,30.20
2018-11-21T08:51:55.020Z,29.20
2018-11-21T08:52:55.037Z,30.90
2018-11-21T08:53:55.002Z,31.20
2018-11-21T08:54:54.992Z,29.60
2018-11-21T08:55:54.989Z,30.40
2018-11-21T08:56:54.984Z,30.00
2018-11-21T08:57:55.005Z,29.60
2018-11-21T08:58:54.973Z,31.40
2018-11-21T08:59:54.961Z,31.70
2018-11-21T09:00:54.956Z,29.80
2018-11-21T09:01:54.949Z,29.70
2018-11-21T09:02:54.972Z,31.10
2018-11-21T09:03:54.969Z,27.60
2018-11-21T09:04:54.935Z,27.50
2018-11-21T09:05:54.927Z,28.30
2018-11-21T09:06:54.920Z,28.60
2018-11-21T09:07:54.915Z,25.70
2018-11-21T09:08:54.938Z,31.40
2018-11-21T09:09:54.904Z,27.30
2018-11-21T09:10:54.896Z,25.30
2018-11-21T09:11:54.883Z,25.20
2018-11-21T09:12:54.887Z,31.60
2018-11-21T09:13:54.904Z,28.60
2018-11-21T09:14:54.869Z,31.20
2018-11-21T09:15:54.863Z,31.30
2018-11-21T09:16:54.863Z,32.50
2018-11-21T09:17:54.851Z,33.40
2018-11-21T09:18:54.874Z,28.30
2018-11-21T09:19:54.838Z,31.60
2018-11-21T09:20:54.835Z,28.20
2018-11-21T09:21:54.824Z,30.30
2018-11-21T09:22:54.822Z,25.70
2018-11-21T09:23:54.839Z,25.90
2018-11-21T09:24:54.810Z,30.70
2018-11-21T09:25:54.803Z,30.30
2018-11-21T09:26:54.799Z,31.00
2018-11-21T09:27:54.789Z,30.00
2018-11-21T09:28:54.813Z,26.00
2018-11-21T09:29:54.777Z,32.40
2018-11-21T09:30:54.771Z,32.90
2018-11-21T09:31:54.765Z,29.00
2018-11-21T09:32:54.761Z,32.20
2018-11-21T09:33:54.786Z,31.90
2018-11-21T09:34:54.746Z,33.90
2018-11-21T09:35:54.741Z,32.10
2018-11-21T09:36:54.740Z,29.40
2018-11-21T09:37:54.757Z,28.60
2018-11-21T09:38:54.721Z,32.10
2018-11-21T09:39:54.745Z,35.50
2018-11-21T09:40:54.713Z,36.00
2018-11-21T09:41:54.705Z,38.00
2018-11-21T09:42:54.698Z,27.70
2018-11-21T09:43:54.722Z,30.80
2018-11-21T09:44:54.707Z,30.60
2018-11-21T09:45:54.680Z,32.90
2018-11-21T09:46:54.676Z,33.60
2018-11-21T09:47:54.667Z,33.10
2018-11-21T09:48:54.686Z,30.10
2018-11-21T09:49:54.653Z,32.20
2018-11-21T09:50:54.646Z,31.00
2018-11-21T09:51:54.651Z,32.20
2018-11-21T09:52:54.632Z,33.30
2018-11-21T09:53:54.661Z,33.90
2018-11-21T09:54:54.624Z,30.80
2018-11-21T09:55:54.620Z,32.50
2018-11-21T09:56:54.616Z,32.70
2018-11-21T09:57:54.612Z,32.60
2018-11-21T09:58:54.629Z,32.50
2018-11-21T09:59:54.597Z,33.60
2018-11-21T10:00:54.591Z,33.30
2018-11-21T10:01:54.583Z,31.40
2018-11-21T10:02:54.576Z,32.80
2018-11-21T10:03:54.599Z,29.80
2018-11-21T10:04:54.568Z,31.30
2018-11-21T10:05:54.559Z,29.50
2018-11-21T10:06:54.552Z,31.10
2018-11-21T10:07:54.547Z,26.50
2018-11-21T10:08:54.573Z,30.50
2018-11-21T10:09:54.535Z,28.20
2018-11-21T10:10:54.531Z,26.70
2018-11-21T10:11:54.527Z,27.30
2018-11-21T10:12:54.519Z,32.00
2018-11-21T10:13:54.539Z,33.20
2018-11-21T10:14:54.505Z,32.10
2018-11-21T10:15:54.498Z,31.90
2018-11-21T10:16:54.494Z,31.00
2018-11-21T10:17:54.483Z,31.00
2018-11-21T10:18:54.511Z,30.60
2018-11-21T10:19:54.479Z,29.40
2018-11-21T10:20:54.472Z,30.80
2018-11-21T10:21:54.465Z,26.70
2018-11-21T10:22:54.463Z,33.30
2018-11-21T10:23:54.481Z,31.80
2018-11-21T10:24:54.453Z,28.00
2018-11-21T10:25:54.442Z,33.90
2018-11-21T10:26:54.434Z,31.10
2018-11-21T10:27:54.428Z,21.30
2018-11-21T10:28:54.450Z,32.00
2018-11-21T10:29:54.483Z,32.60
2018-11-21T10:30:54.408Z,28.60
2018-11-21T10:31:54.404Z,32.50
2018-11-21T10:32:54.404Z,25.80
2018-11-21T10:33:54.420Z,30.10
2018-11-21T10:34:54.386Z,31.00
2018-11-21T10:35:54.379Z,30.70
2018-11-21T10:36:54.377Z,30.30
2018-11-21T10:37:54.368Z,26.60
2018-11-21T10:38:54.392Z,24.70
2018-11-21T10:39:54.364Z,30.60
2018-11-21T10:40:54.352Z,32.20
2018-11-21T10:41:54.371Z,28.20
2018-11-21T10:42:54.340Z,28.20
2018-11-21T10:43:54.364Z,31.20
2018-11-21T10:44:54.331Z,29.50
2018-11-21T10:45:54.323Z,30.50
2018-11-21T10:46:54.317Z,27.70
2018-11-21T10:47:54.311Z,31.20
2018-11-21T10:48:54.335Z,31.40
2018-11-21T10:49:54.303Z,32.80
2018-11-21T10:50:54.295Z,30.00
2018-11-21T10:51:54.301Z,31.30
2018-11-21T10:52:54.284Z,31.20
2018-11-21T10:53:54.309Z,31.20
2018-11-21T10:54:54.271Z,30.90
2018-11-21T10:55:54.292Z,32.00
2018-11-21T10:56:54.262Z,31.10
2018-11-21T10:57:54.255Z,32.60
2018-11-21T10:58:54.249Z,31.40
2018-11-21T10:59:54.272Z,28.00
2018-11-21T11:00:54.236Z,28.60
2018-11-21T11:01:54.231Z,28.00
2018-11-21T11:02:54.227Z,31.60
2018-11-21T11:03:54.219Z,32.40
2018-11-21T11:04:54.246Z,27.80
2018-11-21T11:05:54.209Z,30.60
2018-11-21T11:06:54.201Z,28.70
2018-11-21T11:07:54.194Z,30.70
2018-11-21T11:08:54.190Z,32.10
2018-11-21T11:09:54.215Z,30.90
2018-11-21T11:10:54.180Z,29.10
2018-11-21T11:11:54.171Z,31.80
2018-11-21T11:12:54.166Z,32.00
2018-11-21T11:13:54.161Z,26.70
2018-11-21T11:14:54.177Z,27.50
2018-11-21T11:15:54.151Z,27.60
2018-11-21T11:16:54.146Z,25.60
2018-11-21T11:17:59.222Z,29.60
2018-11-21T11:18:54.132Z,30.70
2018-11-21T11:19:54.154Z,30.30
2018-11-21T11:20:54.121Z,31.40
2018-11-21T11:21:54.118Z,30.60
2018-11-21T11:22:54.104Z,32.40
2018-11-21T11:23:54.103Z,32.20
2018-11-21T11:24:54.116Z,30.80
2018-11-21T11:25:54.091Z,29.40
2018-11-21T11:26:54.101Z,26.80
2018-11-21T11:27:54.077Z,32.50
2018-11-21T11:28:54.063Z,32.30
2018-11-21T11:29:54.094Z,31.60
2018-11-21T11:30:54.060Z,31.40
2018-11-21T11:31:54.053Z,32.80
2018-11-21T11:32:54.048Z,31.80
2018-11-21T11:33:54.040Z,22.20
2018-11-21T11:34:54.064Z,30.40
2018-11-21T11:35:54.030Z,29.60
2018-11-21T11:36:54.024Z,31.40
2018-11-21T11:37:54.025Z,29.70
2018-11-21T11:38:54.015Z,31.60
2018-11-21T11:39:54.038Z,28.90
2018-11-21T11:40:54.000Z,27.40
2018-11-21T11:41:53.996Z,28.10
2018-11-21T11:42:53.990Z,26.60
2018-11-21T11:43:53.984Z,31.40
2018-11-21T11:44:54.004Z,31.90
2018-11-21T11:45:53.971Z,30.10
2018-11-21T11:46:53.969Z,31.90
2018-11-21T11:47:53.961Z,32.00
2018-11-21T11:48:53.954Z,32.90
2018-11-21T11:49:53.981Z,29.90
2018-11-21T11:50:53.943Z,31.40
2018-11-21T11:51:53.935Z,28.10
2018-11-21T11:52:53.930Z,32.20
2018-11-21T11:53:53.922Z,30.90
2018-11-21T11:54:53.948Z,33.70
2018-11-21T11:55:53.923Z,33.70
2018-11-21T11:56:53.911Z,32.10
2018-11-21T11:57:53.902Z,31.10
2018-11-21T11:58:53.894Z,32.10
2018-11-21T11:59:53.922Z,21.30
2018-11-21T12:00:53.879Z,31.10
2018-11-21T12:01:53.877Z,33.50
2018-11-21T12:02:53.866Z,30.80
2018-11-21T12:03:57.776Z,30.80
2018-11-21T12:04:53.889Z,31.60
2018-11-21T12:05:53.856Z,30.70
2018-11-21T12:06:53.849Z,30.50
2018-11-21T12:07:53.844Z,32.30
2018-11-21T12:08:53.837Z,33.10
2018-11-21T12:09:53.857Z,29.30
2018-11-21T12:10:53.826Z,33.40
2018-11-21T12:11:53.817Z,30.40
2018-11-21T12:12:53.813Z,31.60
2018-11-21T12:13:53.805Z,31.90
2018-11-21T12:14:53.828Z,30.30
2018-11-21T12:15:53.795Z,31.40
2018-11-21T12:16:53.793Z,30.10
2018-11-21T12:17:53.780Z,33.20
2018-11-21T12:18:53.776Z,33.10
2018-11-21T12:19:53.796Z,32.90
2018-11-21T12:20:53.765Z,30.80
2018-11-21T12:21:53.758Z,33.30
2018-11-21T12:22:53.752Z,31.20
2018-11-21T12:23:53.747Z,28.40
2018-11-21T12:24:53.768Z,33.20
2018-11-21T12:25:53.736Z,30.90
2018-11-21T12:26:53.728Z,26.00
2018-11-21T12:27:53.724Z,33.20
2018-11-21T12:28:53.717Z,32.00
2018-11-21T12:29:53.739Z,30.20
2018-11-21T12:30:53.710Z,30.40
2018-11-21T12:31:53.699Z,31.10
2018-11-21T12:32:53.695Z,29.00
2018-11-21T12:33:53.686Z,30.50
2018-11-21T12:34:53.707Z,31.70
2018-11-21T12:35:53.678Z,28.60
2018-11-21T12:36:53.671Z,28.70
2018-11-21T12:37:53.663Z,30.40
2018-11-21T12:38:53.659Z,30.40
2018-11-21T12:39:53.678Z,27.10
2018-11-21T12:40:53.647Z,31.70
2018-11-21T12:41:53.640Z,30.60
2018-11-21T12:42:53.635Z,31.70
2018-11-21T12:43:53.710Z,31.80
2018-11-21T12:44:53.652Z,33.00
2018-11-21T12:45:53.617Z,30.00
2018-11-21T12:46:53.610Z,28.50
2018-11-21T12:47:53.629Z,32.30
2018-11-21T12:48:53.597Z,33.10
2018-11-21T12:49:53.621Z,33.10
2018-11-21T12:50:53.610Z,26.60
2018-11-21T12:51:53.578Z,30.10
2018-11-21T12:52:53.569Z,24.10
2018-11-21T12:53:53.569Z,29.10
2018-11-21T12:54:53.590Z,32.30